createdAt,value
2023-05-24T00:02:00.079Z,100473.78
2023-05-24T00:04:30.558Z,100471.47
2023-05-24T00:06:59.179Z,100469.31
2023-05-24T00:09:28.018Z,100473.50
2023-05-24T00:11:56.718Z,100467.63
2023-05-24T00:14:25.917Z,100479.41
2023-05-24T00:16:54.564Z,100476.88
2023-05-24T00:19:23.788Z,100473.69
2023-05-24T00:21:52.363Z,100474.41
2023-05-24T00:24:21.383Z,100472.38
2023-05-24T00:26:49.859Z,100471.09
2023-05-24T00:29:18.587Z,100477.13
2023-05-24T00:31:47.032Z,100473.25
2023-05-24T00:34:16.006Z,100478.13
2023-05-24T00:36:46.963Z,100476.28
2023-05-24T00:39:17.810Z,100478.69
2023-05-24T00:41:46.297Z,100481.03
2023-05-24T00:44:15.208Z,100472.00
2023-05-24T00:46:43.729Z,100475.00
2023-05-24T00:49:12.642Z,100479.69
2023-05-24T00:51:41.193Z,100474.00
2023-05-24T00:54:10.106Z,100470.00
2023-05-24T00:56:38.633Z,100465.28
2023-05-24T00:59:07.815Z,100467.31
2023-05-24T01:01:37.566Z,100469.66
2023-05-24T01:04:07.805Z,100461.47
2023-05-24T01:07:08.305Z,100462.97
2023-05-24T01:09:58.802Z,100458.28
2023-05-24T01:12:51.692Z,100461.97
2023-05-24T01:15:45.078Z,100454.59
2023-05-24T01:18:26.297Z,100464.50
2023-05-24T01:21:39.042Z,100452.25
2023-05-24T01:24:44.812Z,100457.28
2023-05-24T01:27:13.729Z,100459.28
2023-05-24T01:29:42.154Z,100456.44
2023-05-24T01:32:11.064Z,100454.78
2023-05-24T01:34:41.287Z,100461.66
2023-05-24T01:37:10.954Z,100457.28
2023-05-24T01:39:41.558Z,100449.94
2023-05-24T01:42:25.075Z,100452.28
2023-05-24T01:45:07.820Z,100460.31
2023-05-24T01:47:59.101Z,100455.97
2023-05-24T01:50:33.511Z,100450.94
2023-05-24T01:53:08.120Z,100452.75
2023-05-24T01:55:36.693Z,100456.97
2023-05-24T01:58:06.125Z,100457.63
2023-05-24T02:00:34.890Z,100455.13
2023-05-24T02:03:03.823Z,100448.75
2023-05-24T02:05:35.541Z,100451.94
2023-05-24T02:08:08.056Z,100452.09
2023-05-24T02:10:39.785Z,100457.78
2023-05-24T02:13:08.742Z,100450.59
2023-05-24T02:15:37.318Z,100452.78
2023-05-24T02:18:08.552Z,100435.84
2023-05-24T02:20:37.359Z,100445.34
2023-05-24T02:23:07.208Z,100459.66
2023-05-24T02:25:35.725Z,100453.09
2023-05-24T02:28:04.470Z,100462.16
2023-05-24T02:30:32.901Z,100454.59
2023-05-24T02:33:02.282Z,100458.22
2023-05-24T02:35:30.981Z,100456.78
2023-05-24T02:38:00.042Z,100451.25
2023-05-24T02:40:28.552Z,100459.97
2023-05-24T02:42:57.267Z,100452.09
2023-05-24T02:45:25.868Z,100457.25
2023-05-24T02:47:54.609Z,100454.56
2023-05-24T02:50:23.122Z,100462.59
2023-05-24T02:52:51.909Z,100452.09
2023-05-24T02:55:20.770Z,100460.09
2023-05-24T02:57:49.539Z,100459.41
2023-05-24T03:00:18.809Z,100456.56
2023-05-24T03:02:51.501Z,100466.09
2023-05-24T03:05:20.196Z,100465.19
2023-05-24T03:07:49.297Z,100461.53
2023-05-24T03:10:17.894Z,100457.28
2023-05-24T03:12:47.496Z,100455.25
2023-05-24T03:15:17.885Z,100459.72
2023-05-24T03:17:48.403Z,100452.38
2023-05-24T03:20:18.470Z,100462.81
2023-05-24T03:22:47.878Z,100454.59
2023-05-24T03:25:17.471Z,100458.63
2023-05-24T03:27:47.051Z,100465.59
2023-05-24T03:30:16.578Z,100467.75
2023-05-24T03:32:55.201Z,100470.41
2023-05-24T03:35:23.921Z,100476.09
2023-05-24T03:37:53.618Z,100479.78
2023-05-24T03:40:22.909Z,100476.78
2023-05-24T03:43:00.609Z,100494.81
2023-05-24T03:46:05.222Z,100494.19
2023-05-24T03:48:34.221Z,100495.09
2023-05-24T03:51:02.771Z,100492.03
2023-05-24T03:53:32.529Z,100496.16
2023-05-24T03:56:01.679Z,100492.75
2023-05-24T03:58:31.553Z,100500.78
2023-05-24T04:01:00.221Z,100498.78
2023-05-24T04:03:29.227Z,100497.78
2023-05-24T04:05:57.794Z,100505.59
2023-05-24T04:08:26.782Z,100501.16
2023-05-24T04:10:55.364Z,100504.22
2023-05-24T04:13:24.242Z,100507.72
2023-05-24T04:15:53.006Z,100509.00
2023-05-24T04:18:22.699Z,100513.84
2023-05-24T04:20:51.284Z,100503.84
2023-05-24T04:23:22.278Z,100508.03
2023-05-24T04:25:51.283Z,100509.38
2023-05-24T04:28:22.448Z,100513.84
2023-05-24T04:30:52.502Z,100513.78
2023-05-24T04:33:22.643Z,100514.91
2023-05-24T04:35:53.070Z,100512.25
2023-05-24T04:38:22.787Z,100522.16
2023-05-24T04:40:51.251Z,100512.63
2023-05-24T04:43:20.428Z,100517.75
2023-05-24T04:45:49.078Z,100524.31
2023-05-24T04:48:18.548Z,100526.16
2023-05-24T04:50:47.893Z,100527.44
2023-05-24T04:53:17.117Z,100529.81
2023-05-24T04:55:45.923Z,100526.50
2023-05-24T04:58:15.419Z,100530.06
2023-05-24T05:00:44.882Z,100531.09
2023-05-24T05:03:14.122Z,100536.44
2023-05-24T05:05:42.888Z,100537.56
2023-05-24T05:08:11.915Z,100535.91
2023-05-24T05:10:41.394Z,100534.97
2023-05-24T05:13:10.606Z,100545.22
2023-05-24T05:15:40.915Z,100545.66
2023-05-24T05:18:11.782Z,100536.84
2023-05-24T05:20:41.083Z,100539.00
2023-05-24T05:23:10.403Z,100547.53
2023-05-24T05:25:39.064Z,100541.88
2023-05-24T05:28:08.073Z,100548.09
2023-05-24T05:30:36.794Z,100544.56
2023-05-24T05:33:06.413Z,100549.91
2023-05-24T05:35:35.176Z,100550.25
2023-05-24T05:38:04.284Z,100549.28
2023-05-24T05:40:33.044Z,100549.94
2023-05-24T05:43:02.330Z,100551.72
2023-05-24T05:45:31.246Z,100551.28
2023-05-24T05:48:00.292Z,100549.25
2023-05-24T05:50:28.937Z,100555.97
2023-05-24T05:52:58.321Z,100560.66
2023-05-24T05:55:26.997Z,100550.66
2023-05-24T05:57:55.995Z,100553.25
2023-05-24T06:00:24.657Z,100557.63
2023-05-24T06:02:53.995Z,100555.44
2023-05-24T06:05:22.808Z,100565.00
2023-05-24T06:07:51.801Z,100561.34
2023-05-24T06:10:20.503Z,100562.69
2023-05-24T06:12:49.164Z,100565.06
2023-05-24T06:15:17.689Z,100558.03
2023-05-24T06:17:48.232Z,100566.09
2023-05-24T06:20:17.339Z,100557.22
2023-05-24T06:22:46.557Z,100560.22
2023-05-24T06:25:19.443Z,100564.91
2023-05-24T06:27:48.264Z,100553.28
2023-05-24T06:30:16.848Z,100558.66
2023-05-24T06:32:45.815Z,100559.50
2023-05-24T06:35:14.470Z,100564.88
2023-05-24T06:37:43.828Z,100557.16
2023-05-24T06:40:13.213Z,100560.38
2023-05-24T06:42:42.005Z,100562.19
2023-05-24T06:45:11.439Z,100562.19
2023-05-24T06:47:40.301Z,100558.81
2023-05-24T06:50:09.654Z,100557.59
2023-05-24T06:52:38.507Z,100559.69
2023-05-24T06:55:07.320Z,100557.53
2023-05-24T06:57:36.477Z,100560.56
2023-05-24T07:00:10.162Z,100553.84
2023-05-24T07:02:40.139Z,100563.06
2023-05-24T07:05:12.749Z,100562.59
2023-05-24T07:07:42.716Z,100559.88
2023-05-24T07:10:11.861Z,100561.59
2023-05-24T07:12:41.048Z,100564.28
2023-05-24T07:15:10.115Z,100563.75
2023-05-24T07:17:39.244Z,100562.75
2023-05-24T07:20:11.419Z,100563.56
2023-05-24T07:22:41.534Z,100565.56
2023-05-24T07:25:10.595Z,100558.31
2023-05-24T07:27:39.972Z,100564.19
2023-05-24T07:30:19.765Z,100565.25
2023-05-24T07:32:58.469Z,100559.84
2023-05-24T07:35:29.033Z,100567.59
2023-05-24T07:37:58.083Z,100559.03
2023-05-24T07:40:26.839Z,100558.94
2023-05-24T07:42:56.372Z,100558.50
2023-05-24T07:45:25.322Z,100563.75
2023-05-24T07:47:56.708Z,100569.13
2023-05-24T07:50:26.928Z,100573.47
2023-05-24T07:52:57.908Z,100559.88
2023-05-24T07:55:28.166Z,100563.09
2023-05-24T07:57:57.256Z,100567.94
2023-05-24T08:00:26.077Z,100570.75
2023-05-24T08:02:55.080Z,100568.75
2023-05-24T08:05:24.205Z,100580.16
2023-05-24T08:07:53.802Z,100577.66
2023-05-24T08:10:22.467Z,100572.81
2023-05-24T08:12:54.880Z,100576.13
2023-05-24T08:15:23.796Z,100573.03
2023-05-24T08:17:52.806Z,100568.16
2023-05-24T08:20:21.701Z,100564.81
2023-05-24T08:22:50.891Z,100567.81
2023-05-24T08:25:20.231Z,100571.34
2023-05-24T08:27:49.533Z,100572.63
2023-05-24T08:30:18.630Z,100573.72
2023-05-24T08:32:47.993Z,100565.16
2023-05-24T08:35:21.551Z,100563.94
2023-05-24T08:37:50.998Z,100570.88
2023-05-24T08:40:19.797Z,100578.06
2023-05-24T08:42:49.266Z,100580.91
2023-05-24T08:45:18.180Z,100573.84
2023-05-24T08:47:47.223Z,100573.81
2023-05-24T08:50:15.962Z,100573.22
2023-05-24T08:52:45.283Z,100589.50
2023-05-24T08:55:13.983Z,100570.88
2023-05-24T08:57:42.988Z,100583.09
2023-05-24T09:00:13.287Z,100579.31
2023-05-24T09:02:43.563Z,100577.78
2023-05-24T09:05:14.714Z,100581.13
2023-05-24T09:07:46.828Z,100580.41
2023-05-24T09:10:15.921Z,100578.03
2023-05-24T09:12:52.498Z,100582.13
2023-05-24T09:15:24.443Z,100580.25
2023-05-24T09:17:54.715Z,100577.72
2023-05-24T09:20:23.656Z,100583.72
2023-05-24T09:22:53.805Z,100568.44
2023-05-24T09:25:22.796Z,100573.44
2023-05-24T09:27:52.965Z,100571.97
2023-05-24T09:30:22.017Z,100566.34
2023-05-24T09:32:59.437Z,100570.22
2023-05-24T09:35:28.946Z,100564.59
2023-05-24T09:38:00.252Z,100568.78
2023-05-24T09:40:29.954Z,100564.41
2023-05-24T09:43:11.896Z,100566.91
2023-05-24T09:45:47.528Z,100567.22
2023-05-24T09:48:17.629Z,100570.47
2023-05-24T09:50:57.649Z,100564.72
2023-05-24T09:53:27.108Z,100569.75
2023-05-24T09:55:56.397Z,100576.78
2023-05-24T09:58:29.395Z,100574.28
2023-05-24T10:01:06.760Z,100567.06
2023-05-24T10:03:38.092Z,100571.06
2023-05-24T10:06:11.718Z,100564.47
2023-05-24T10:08:40.901Z,100568.00
2023-05-24T10:11:09.866Z,100571.91
2023-05-24T10:13:38.976Z,100565.31
2023-05-24T10:16:07.677Z,100559.56
2023-05-24T10:18:36.766Z,100556.53
2023-05-24T10:21:09.902Z,100556.75
2023-05-24T10:23:39.566Z,100558.72
2023-05-24T10:26:11.990Z,100558.34
2023-05-24T10:28:46.659Z,100559.91
2023-05-24T10:31:27.181Z,100560.56
2023-05-24T10:34:06.547Z,100555.56
2023-05-24T10:36:37.341Z,100549.63
2023-05-24T10:39:09.716Z,100556.03
2023-05-24T10:41:44.724Z,100558.44
2023-05-24T10:44:19.788Z,100555.84
2023-05-24T10:47:08.905Z,100550.56
2023-05-24T10:49:39.903Z,100552.72
2023-05-24T10:52:10.055Z,100548.16
2023-05-24T10:54:42.856Z,100540.72
2023-05-24T10:57:15.805Z,100551.50
2023-05-24T10:59:45.644Z,100550.81
2023-05-24T11:02:15.226Z,100549.78
2023-05-24T11:04:47.085Z,100544.97
2023-05-24T11:07:16.321Z,100538.66
2023-05-24T11:09:49.158Z,100525.63
2023-05-24T11:12:18.764Z,100526.50
2023-05-24T11:14:52.701Z,100531.16
2023-05-24T11:17:23.124Z,100529.19
2023-05-24T11:19:55.365Z,100525.19
2023-05-24T11:22:25.888Z,100529.84
2023-05-24T11:24:54.713Z,100525.56
2023-05-24T11:27:23.272Z,100520.41
2023-05-24T11:29:52.286Z,100526.59
2023-05-24T11:32:22.085Z,100523.34
2023-05-24T11:34:51.970Z,100523.16
2023-05-24T11:37:28.642Z,100514.50
2023-05-24T11:40:05.383Z,100504.50
2023-05-24T11:42:33.951Z,100506.16
2023-05-24T11:45:02.778Z,100495.56
2023-05-24T11:47:31.350Z,100492.88
2023-05-24T11:50:00.399Z,100495.84
2023-05-24T11:52:29.219Z,100487.78
2023-05-24T11:54:58.107Z,100492.50
2023-05-24T11:57:40.615Z,100482.84
2023-05-24T12:00:17.120Z,100477.75
2023-05-24T12:02:49.261Z,100479.13
2023-05-24T12:05:19.638Z,100483.31
2023-05-24T12:07:51.459Z,100470.44
2023-05-24T12:10:22.920Z,100470.50
2023-05-24T12:12:52.128Z,100466.78
2023-05-24T12:15:22.608Z,100465.13
2023-05-24T12:17:51.698Z,100458.69
2023-05-24T12:20:21.855Z,100457.22
2023-05-24T12:22:53.920Z,100464.47
2023-05-24T12:25:27.429Z,100459.63
2023-05-24T12:27:56.785Z,100463.25
2023-05-24T12:30:28.560Z,100476.06
2023-05-24T12:32:57.944Z,100461.03
2023-05-24T12:35:26.946Z,100467.88
2023-05-24T12:38:01.703Z,100475.13
2023-05-24T12:40:33.776Z,100472.09
2023-05-24T12:43:04.090Z,100465.13
2023-05-24T12:45:33.255Z,100456.38
2023-05-24T12:48:03.219Z,100470.22
2023-05-24T12:50:32.870Z,100465.53
2023-05-24T12:53:01.488Z,100468.00
2023-05-24T12:55:30.813Z,100448.94
2023-05-24T12:58:01.940Z,100446.44
2023-05-24T13:00:31.755Z,100438.88
2023-05-24T13:03:00.439Z,100433.97
2023-05-24T13:05:32.348Z,100439.81
2023-05-24T13:08:04.278Z,100431.09
2023-05-24T13:10:35.322Z,100418.16
2023-05-24T13:13:05.516Z,100425.88
2023-05-24T13:15:35.086Z,100432.09
2023-05-24T13:18:05.645Z,100425.69
2023-05-24T13:20:34.950Z,100426.72
2023-05-24T13:23:03.666Z,100422.59
2023-05-24T13:25:34.069Z,100422.78
2023-05-24T13:28:02.801Z,100414.28
2023-05-24T13:30:34.241Z,100421.31
2023-05-24T13:33:02.952Z,100423.25
2023-05-24T13:35:33.453Z,100426.88
2023-05-24T13:38:02.113Z,100436.09
2023-05-24T13:40:31.027Z,100438.59
2023-05-24T13:42:59.957Z,100434.75
2023-05-24T13:45:30.562Z,100436.41
2023-05-24T13:48:04.333Z,100431.16
2023-05-24T13:50:36.810Z,100420.09
2023-05-24T13:53:06.128Z,100428.56
2023-05-24T13:55:36.304Z,100429.88
2023-05-24T13:58:05.417Z,100431.78
2023-05-24T14:00:36.368Z,100419.50
2023-05-24T14:03:06.398Z,100415.22
2023-05-24T14:05:35.948Z,100417.53
2023-05-24T14:08:07.021Z,100416.13
2023-05-24T14:10:37.306Z,100407.88
2023-05-24T14:15:39.095Z,100397.78
2023-05-24T14:18:08.860Z,100389.44
2023-05-24T14:20:38.766Z,100383.28
2023-05-24T14:23:08.251Z,100381.28
2023-05-24T14:25:38.044Z,100389.94
2023-05-24T14:28:08.776Z,100384.06
2023-05-24T14:30:38.285Z,100388.13
2023-05-24T14:33:08.622Z,100390.53
2023-05-24T14:35:41.457Z,100390.22
2023-05-24T14:38:11.636Z,100384.44
2023-05-24T14:40:41.146Z,100380.94
2023-05-24T14:43:11.055Z,100378.06
2023-05-24T14:45:42.279Z,100383.28
2023-05-24T14:48:12.538Z,100389.31
2023-05-24T14:50:42.185Z,100372.59
2023-05-24T14:53:13.973Z,100379.16
2023-05-24T14:55:44.044Z,100378.44
2023-05-24T14:58:13.365Z,100379.94
2023-05-24T15:00:43.284Z,100377.13
2023-05-24T15:03:14.755Z,100375.44
2023-05-24T15:05:44.131Z,100379.03
2023-05-24T15:08:12.971Z,100385.66
2023-05-24T15:10:45.182Z,100389.81
2023-05-24T15:13:14.222Z,100386.66
2023-05-24T15:15:43.538Z,100373.97
2023-05-24T15:18:12.287Z,100383.09
2023-05-24T15:20:41.720Z,100369.63
2023-05-24T15:23:11.087Z,100375.78
2023-05-24T15:25:41.205Z,100367.91
2023-05-24T15:28:13.158Z,100375.78
2023-05-24T15:30:44.843Z,100372.81
2023-05-24T15:33:14.188Z,100374.69
2023-05-24T15:35:43.474Z,100364.69
2023-05-24T15:38:12.263Z,100372.75
2023-05-24T15:40:42.911Z,100378.63
2023-05-24T15:43:11.852Z,100382.72
2023-05-24T15:45:40.812Z,100381.97
2023-05-24T15:48:10.644Z,100378.34
2023-05-24T15:51:03.761Z,100378.81
2023-05-24T15:53:28.963Z,100364.56
2023-05-24T15:55:57.933Z,100367.53
2023-05-24T15:58:26.910Z,100380.63
2023-05-24T16:00:56.058Z,100376.44
2023-05-24T16:03:25.245Z,100382.50
2023-05-24T16:05:54.430Z,100391.22
2023-05-24T16:08:28.138Z,100379.41
2023-05-24T16:10:57.954Z,100391.13
2023-05-24T16:13:27.127Z,100405.69
2023-05-24T16:15:56.668Z,100401.25
2023-05-24T16:18:27.288Z,100399.19
2023-05-24T16:20:57.065Z,100403.81
2023-05-24T16:23:25.993Z,100399.94
2023-05-24T16:25:55.306Z,100400.31
2023-05-24T16:28:25.150Z,100400.09
2023-05-24T16:30:56.475Z,100407.28
2023-05-24T16:33:25.614Z,100421.63
2023-05-24T16:36:00.500Z,100422.84
2023-05-24T16:38:32.869Z,100428.88
2023-05-24T16:41:02.308Z,100441.19
2023-05-24T16:43:34.559Z,100451.38
2023-05-24T16:46:05.064Z,100450.88
2023-05-24T16:48:34.251Z,100447.97
2023-05-24T16:51:05.002Z,100464.75
2023-05-24T16:53:34.074Z,100478.78
2023-05-24T16:56:03.510Z,100482.38
2023-05-24T16:58:32.170Z,100482.66
2023-05-24T17:01:03.188Z,100483.50
2023-05-24T17:03:34.689Z,100486.28
2023-05-24T17:06:07.171Z,100495.06
2023-05-24T17:08:36.752Z,100492.50
2023-05-24T17:11:06.610Z,100493.66
2023-05-24T17:13:36.754Z,100481.97
2023-05-24T17:16:06.680Z,100483.75
2023-05-24T17:18:36.204Z,100483.75
2023-05-24T17:21:06.078Z,100491.94
2023-05-24T17:23:37.720Z,100485.06
2023-05-24T17:26:14.943Z,100485.97
2023-05-24T17:28:46.637Z,100493.72
2023-05-24T17:31:17.381Z,100493.72
2023-05-24T17:33:46.789Z,100494.22
2023-05-24T17:36:19.039Z,100496.63
2023-05-24T17:38:47.839Z,100507.19
2023-05-24T17:41:18.385Z,100523.66
2023-05-24T17:43:48.194Z,100514.91
2023-05-24T17:46:18.100Z,100520.22
2023-05-24T17:48:48.138Z,100537.91
2023-05-24T17:51:21.087Z,100538.88
2023-05-24T17:53:51.614Z,100550.47
2023-05-24T17:56:23.479Z,100556.66
2023-05-24T17:58:52.558Z,100564.03
2023-05-24T18:01:23.927Z,100582.34
2023-05-24T18:03:53.096Z,100580.38
2023-05-24T18:06:23.537Z,100591.78
2023-05-24T18:08:54.093Z,100596.97
2023-05-24T18:11:24.739Z,100590.53
2023-05-24T18:13:54.809Z,100590.91
2023-05-24T18:16:27.097Z,100599.66
2023-05-24T18:18:56.430Z,100594.78
2023-05-24T18:21:28.876Z,100612.75
2023-05-24T18:23:59.364Z,100611.38
2023-05-24T18:26:28.978Z,100595.13
2023-05-24T18:28:59.305Z,100596.31
2023-05-24T18:31:28.258Z,100583.88
2023-05-24T18:33:57.857Z,100589.41
2023-05-24T18:36:29.139Z,100586.91
2023-05-24T18:38:58.542Z,100574.31
2023-05-24T18:41:32.566Z,100581.34
2023-05-24T18:44:07.869Z,100593.56
2023-05-24T18:46:39.503Z,100602.81
2023-05-24T18:49:11.245Z,100597.13
2023-05-24T18:51:44.103Z,100606.88
2023-05-24T18:54:14.673Z,100598.47
2023-05-24T18:56:47.330Z,100598.16
2023-05-24T18:59:18.712Z,100607.50
2023-05-24T19:01:49.858Z,100606.34
2023-05-24T19:04:18.720Z,100620.13
2023-05-24T19:06:54.598Z,100605.84
2023-05-24T19:09:25.095Z,100612.41
2023-05-24T19:11:59.523Z,100603.84
2023-05-24T19:14:31.331Z,100604.34
2023-05-24T19:17:02.400Z,100603.00
2023-05-24T19:19:33.882Z,100599.31
2023-05-24T19:22:04.007Z,100599.81
2023-05-24T19:24:35.216Z,100592.25
2023-05-24T19:29:40.113Z,100599.47
2023-05-24T19:32:11.922Z,100618.72
2023-05-24T19:34:45.421Z,100611.50
2023-05-24T19:37:21.097Z,100625.41
2023-05-24T19:39:51.715Z,100630.44
2023-05-24T19:42:23.181Z,100623.56
2023-05-24T19:44:54.234Z,100630.91
2023-05-24T19:47:26.015Z,100636.13
2023-05-24T19:50:00.283Z,100627.22
2023-05-24T19:52:38.838Z,100634.28
2023-05-24T19:55:28.012Z,100633.81
2023-05-24T19:58:02.538Z,100637.16
2023-05-24T20:00:36.081Z,100638.00
2023-05-24T20:06:24.792Z,100650.81
2023-05-24T21:03:57.785Z,100622.97
2023-05-24T21:06:50.426Z,100622.63
2023-05-24T21:09:26.078Z,100623.28
2023-05-24T21:12:45.557Z,100623.66
2023-05-24T21:15:33.185Z,100630.00
2023-05-24T21:18:05.656Z,100628.19
2023-05-24T21:20:51.535Z,100624.81
2023-05-24T21:24:04.124Z,100625.50
2023-05-24T21:26:32.945Z,100625.66
2023-05-24T21:29:22.356Z,100637.72
2023-05-24T21:32:12.085Z,100631.00
2023-05-24T21:34:46.177Z,100634.88
2023-05-24T21:37:40.544Z,100624.63
2023-05-24T21:40:37.155Z,100629.69
2023-05-24T21:43:12.563Z,100628.19
2023-05-24T21:45:42.354Z,100625.50
2023-05-24T21:48:21.685Z,100637.38
2023-05-24T21:50:51.734Z,100628.81
2023-05-24T21:53:20.525Z,100633.72
2023-05-24T21:55:55.308Z,100640.72
2023-05-24T21:58:38.868Z,100637.06
2023-05-24T22:01:08.986Z,100639.38
2023-05-24T22:03:44.554Z,100644.44
2023-05-24T22:06:44.421Z,100643.09
2023-05-24T22:09:25.594Z,100651.84
2023-05-24T22:11:56.023Z,100649.13
2023-05-24T22:14:27.683Z,100641.75
2023-05-24T22:17:14.439Z,100649.94
2023-05-24T22:20:01.530Z,100649.94
2023-05-24T22:26:17.251Z,100644.78
2023-05-24T22:28:52.669Z,100640.25
2023-05-24T22:31:25.739Z,100638.75
2023-05-24T22:33:59.273Z,100638.53
2023-05-24T22:36:39.755Z,100637.88
2023-05-24T22:39:14.712Z,100637.03
2023-05-24T22:41:45.177Z,100640.22
2023-05-24T22:44:17.576Z,100634.84
2023-05-24T22:46:54.831Z,100635.34
2023-05-24T22:49:36.705Z,100640.09
2023-05-24T22:52:07.304Z,100634.38
2023-05-24T22:54:49.596Z,100639.84
2023-05-24T22:57:23.800Z,100628.97
2023-05-24T23:00:08.566Z,100616.06
2023-05-24T23:03:02.458Z,100622.56
2023-05-24T23:05:41.319Z,100626.28
2023-05-24T23:08:15.492Z,100625.78
2023-05-24T23:10:49.362Z,100630.50
2023-05-24T23:13:53.365Z,100629.00
2023-05-24T23:16:25.939Z,100630.97
2023-05-24T23:19:21.266Z,100647.78
2023-05-24T23:22:11.426Z,100653.00
2023-05-24T23:24:42.829Z,100655.16
2023-05-24T23:27:12.762Z,100665.06
2023-05-24T23:29:42.509Z,100674.66
2023-05-24T23:32:19.259Z,100676.31
2023-05-24T23:34:56.569Z,100680.84
2023-05-24T23:37:39.744Z,100680.53
2023-05-24T23:40:34.341Z,100679.69
2023-05-24T23:43:07.443Z,100681.00
2023-05-24T23:45:40.160Z,100691.91
2023-05-24T23:48:30.201Z,100697.44
2023-05-24T23:58:56.079Z,100696.78
